createdAt,value
2022-09-15T00:00:42.684Z,0.00
2022-09-15T00:01:42.780Z,0.00
2022-09-15T00:02:42.755Z,0.00
2022-09-15T00:03:42.673Z,0.00
2022-09-15T00:04:42.642Z,0.00
2022-09-15T00:05:42.649Z,0.00
2022-09-15T00:06:42.654Z,0.00
2022-09-15T00:07:42.613Z,0.00
2022-09-15T00:08:42.603Z,0.00
2022-09-15T00:09:42.598Z,0.00
2022-09-15T00:10:42.602Z,0.00
2022-09-15T00:11:42.607Z,0.00
2022-09-15T00:12:42.567Z,0.00
2022-09-15T00:13:42.556Z,0.00
2022-09-15T00:14:42.548Z,0.00
2022-09-15T00:15:42.669Z,0.00
2022-09-15T00:16:42.607Z,0.00
2022-09-15T00:17:42.520Z,0.00
2022-09-15T00:18:42.517Z,0.00
2022-09-15T00:19:42.481Z,0.00
2022-09-15T00:20:42.485Z,0.00
2022-09-15T00:21:42.488Z,0.00
2022-09-15T00:22:42.456Z,0.00
2022-09-15T00:23:42.475Z,0.00
2022-09-15T00:24:42.437Z,0.00
2022-09-15T00:25:42.421Z,0.00
2022-09-15T00:26:42.423Z,0.00
2022-09-15T00:27:42.411Z,0.00
2022-09-15T00:28:42.408Z,0.00
2022-09-15T00:29:42.381Z,0.00
2022-09-15T00:30:42.429Z,0.00
2022-09-15T00:31:42.383Z,0.00
2022-09-15T00:32:42.345Z,0.00
2022-09-15T00:33:42.380Z,0.00
2022-09-15T00:34:42.328Z,0.00
2022-09-15T00:35:42.326Z,0.00
2022-09-15T00:36:42.333Z,0.00
2022-09-15T00:37:42.341Z,0.00
2022-09-15T00:38:42.292Z,0.00
2022-09-15T00:39:42.276Z,0.00
2022-09-15T00:40:42.315Z,0.00
2022-09-15T00:41:42.256Z,0.00
2022-09-15T00:42:42.282Z,0.00
2022-09-15T00:43:42.242Z,0.00
2022-09-15T00:44:42.230Z,0.00
2022-09-15T00:45:42.283Z,0.00
2022-09-15T00:46:42.224Z,0.00
2022-09-15T00:47:42.199Z,0.00
2022-09-15T00:48:42.214Z,0.00
2022-09-15T00:49:42.172Z,0.00
2022-09-15T00:50:42.173Z,0.00
2022-09-15T00:51:42.180Z,0.00
2022-09-15T00:52:42.142Z,0.00
2022-09-15T00:53:42.178Z,0.00
2022-09-15T00:54:42.120Z,0.00
2022-09-15T00:55:42.106Z,0.00
2022-09-15T00:56:42.134Z,0.00
2022-09-15T00:57:42.112Z,0.00
2022-09-15T00:58:42.119Z,0.00
2022-09-15T00:59:42.083Z,0.00
2022-09-15T01:00:42.055Z,0.00
2022-09-15T01:01:42.239Z,0.00
2022-09-15T01:02:42.120Z,0.00
2022-09-15T01:03:42.055Z,0.00
2022-09-15T01:04:42.041Z,0.00
2022-09-15T01:05:42.033Z,0.00
2022-09-15T01:06:41.996Z,0.00
2022-09-15T01:07:41.988Z,0.00
2022-09-15T01:08:42.015Z,0.00
2022-09-15T01:09:41.986Z,0.00
2022-09-15T01:10:41.970Z,0.00
2022-09-15T01:11:41.955Z,0.00
2022-09-15T01:12:41.944Z,0.00
2022-09-15T01:13:41.932Z,0.00
2022-09-15T01:14:41.938Z,0.00
2022-09-15T01:15:41.907Z,0.00
2022-09-15T01:16:41.962Z,0.00
2022-09-15T01:17:41.885Z,0.00
2022-09-15T01:18:41.861Z,0.00
2022-09-15T01:19:41.894Z,0.00
2022-09-15T01:20:41.859Z,0.00
2022-09-15T01:21:41.847Z,0.00
2022-09-15T01:22:41.820Z,0.00
2022-09-15T01:23:41.893Z,0.00
2022-09-15T01:24:41.810Z,0.00
2022-09-15T01:25:41.805Z,0.00
2022-09-15T01:26:41.781Z,0.00
2022-09-15T01:27:42.974Z,0.00
2022-09-15T01:28:43.641Z,0.00
2022-09-15T01:29:41.765Z,0.00
2022-09-15T01:30:41.750Z,0.00
2022-09-15T01:31:41.801Z,0.00
2022-09-15T01:32:41.749Z,0.00
2022-09-15T01:33:41.710Z,0.00
2022-09-15T01:34:41.715Z,0.00
2022-09-15T01:35:41.711Z,0.00
2022-09-15T01:36:41.677Z,0.00
2022-09-15T01:37:41.689Z,0.00
2022-09-15T01:38:41.782Z,0.00
2022-09-15T01:39:41.679Z,0.00
2022-09-15T01:40:41.686Z,0.00
2022-09-15T01:41:41.636Z,0.00
2022-09-15T01:42:41.616Z,0.00
2022-09-15T01:43:41.626Z,0.00
2022-09-15T01:44:41.632Z,0.00
2022-09-15T01:45:41.677Z,0.00
2022-09-15T01:46:41.579Z,0.00
2022-09-15T01:47:41.601Z,0.00
2022-09-15T01:48:41.561Z,0.00
2022-09-15T01:49:41.569Z,0.00
2022-09-15T01:50:41.566Z,0.00
2022-09-15T01:51:41.566Z,0.00
2022-09-15T01:52:41.522Z,0.00
2022-09-15T01:53:41.580Z,0.00
2022-09-15T01:54:41.493Z,0.00
2022-09-15T01:55:41.529Z,0.00
2022-09-15T01:56:41.493Z,0.00
2022-09-15T01:57:41.475Z,0.00
2022-09-15T01:58:41.451Z,0.00
2022-09-15T01:59:41.449Z,0.00
2022-09-15T02:00:41.456Z,0.00
2022-09-15T02:01:41.530Z,0.00
2022-09-15T02:02:41.413Z,0.00
2022-09-15T02:03:41.423Z,0.00
2022-09-15T02:04:41.443Z,0.00
2022-09-15T02:05:41.416Z,0.00
2022-09-15T02:06:41.402Z,0.00
2022-09-15T02:07:41.378Z,0.00
2022-09-15T02:08:41.404Z,0.00
2022-09-15T02:09:41.347Z,0.00
2022-09-15T02:10:41.327Z,0.00
2022-09-15T02:11:41.332Z,0.00
2022-09-15T02:12:41.335Z,0.00
2022-09-15T02:13:41.325Z,0.00
2022-09-15T02:14:41.304Z,0.00
2022-09-15T02:15:41.283Z,0.00
2022-09-15T02:16:41.308Z,0.00
2022-09-15T02:17:41.263Z,0.00
2022-09-15T02:18:41.290Z,0.00
2022-09-15T02:19:41.265Z,0.00
2022-09-15T02:20:41.268Z,0.00
2022-09-15T02:21:41.282Z,0.00
2022-09-15T02:22:41.228Z,0.00
2022-09-15T02:23:41.280Z,0.00
2022-09-15T02:24:41.217Z,0.00
2022-09-15T02:25:41.182Z,0.00
2022-09-15T02:26:41.193Z,0.00
2022-09-15T02:27:41.160Z,0.00
2022-09-15T02:28:41.149Z,0.00
2022-09-15T02:29:41.160Z,0.00
2022-09-15T02:30:41.146Z,0.00
2022-09-15T02:31:41.182Z,0.00
2022-09-15T02:32:41.126Z,0.00
2022-09-15T02:33:41.105Z,0.00
2022-09-15T02:34:41.132Z,0.00
2022-09-15T02:35:41.094Z,0.00
2022-09-15T02:36:41.069Z,0.00
2022-09-15T02:37:41.064Z,0.00
2022-09-15T02:38:41.100Z,0.00
2022-09-15T02:39:41.071Z,0.00
2022-09-15T02:40:41.058Z,0.00
2022-09-15T02:41:41.034Z,0.00
2022-09-15T02:42:41.013Z,0.00
2022-09-15T02:43:41.023Z,0.00
2022-09-15T02:44:40.977Z,0.00
2022-09-15T02:45:41.064Z,0.00
2022-09-15T02:46:40.957Z,0.00
2022-09-15T02:47:40.949Z,0.00
2022-09-15T02:48:40.970Z,0.00
2022-09-15T02:49:40.971Z,0.00
2022-09-15T02:50:40.939Z,0.00
2022-09-15T02:51:40.933Z,0.00
2022-09-15T02:52:40.916Z,0.00
2022-09-15T02:53:40.979Z,0.00
2022-09-15T02:54:40.893Z,0.00
2022-09-15T02:55:40.893Z,0.00
2022-09-15T02:56:40.884Z,0.00
2022-09-15T02:57:40.854Z,0.00
2022-09-15T02:58:40.839Z,0.00
2022-09-15T02:59:40.857Z,0.00
2022-09-15T03:00:40.867Z,0.00
2022-09-15T03:01:40.884Z,0.00
2022-09-15T03:02:40.964Z,0.00
2022-09-15T03:03:42.959Z,0.00
2022-09-15T03:04:40.809Z,0.00
2022-09-15T03:05:40.810Z,0.00
2022-09-15T03:06:40.787Z,0.00
2022-09-15T03:07:40.762Z,0.00
2022-09-15T03:08:40.741Z,0.00
2022-09-15T03:09:40.748Z,0.00
2022-09-15T03:10:40.716Z,0.00
2022-09-15T03:11:40.762Z,0.00
2022-09-15T03:12:40.756Z,0.00
2022-09-15T03:13:40.712Z,0.00
2022-09-15T03:14:40.719Z,0.00
2022-09-15T03:15:40.733Z,0.00
2022-09-15T03:16:40.747Z,0.00
2022-09-15T03:17:40.683Z,0.00
2022-09-15T03:18:40.641Z,0.00
2022-09-15T03:19:40.670Z,0.00
2022-09-15T03:20:40.651Z,0.00
2022-09-15T03:21:40.638Z,0.00
2022-09-15T03:22:40.638Z,0.00
2022-09-15T03:23:40.685Z,0.00
2022-09-15T03:24:40.593Z,0.00
2022-09-15T03:25:40.598Z,0.00
2022-09-15T03:26:40.589Z,0.00
2022-09-15T03:27:40.565Z,0.00
2022-09-15T03:28:40.570Z,0.00
2022-09-15T03:29:40.579Z,0.00
2022-09-15T03:30:40.521Z,0.00
2022-09-15T03:31:40.557Z,0.00
2022-09-15T03:32:40.522Z,0.00
2022-09-15T03:33:40.524Z,0.00
2022-09-15T03:34:40.505Z,0.00
2022-09-15T03:35:40.513Z,0.00
2022-09-15T03:36:40.466Z,0.00
2022-09-15T03:37:40.510Z,0.00
2022-09-15T03:38:40.538Z,0.00
2022-09-15T03:39:40.462Z,0.00
2022-09-15T03:40:40.445Z,0.00
2022-09-15T03:41:40.418Z,0.00
2022-09-15T03:42:40.415Z,1.00
2022-09-15T03:43:40.413Z,0.00
2022-09-15T03:44:40.394Z,0.00
2022-09-15T03:45:40.561Z,0.00
2022-09-15T03:46:40.365Z,0.00
2022-09-15T03:47:40.383Z,0.00
2022-09-15T03:48:40.362Z,0.00
2022-09-15T03:49:40.422Z,0.00
2022-09-15T03:50:40.336Z,0.00
2022-09-15T03:51:40.322Z,0.00
2022-09-15T03:52:40.342Z,0.00
2022-09-15T03:53:40.293Z,0.00
2022-09-15T03:54:40.315Z,0.00
2022-09-15T03:55:40.301Z,0.00
2022-09-15T03:56:40.282Z,0.00
2022-09-15T03:57:40.291Z,0.00
2022-09-15T03:58:40.249Z,0.00
2022-09-15T03:59:40.256Z,0.00
2022-09-15T04:00:40.329Z,0.00
2022-09-15T04:01:40.295Z,0.00
2022-09-15T04:02:40.221Z,0.00
2022-09-15T04:03:45.158Z,0.00
2022-09-15T04:04:40.189Z,0.00
2022-09-15T04:05:40.241Z,0.00
2022-09-15T04:06:40.196Z,0.00
2022-09-15T04:07:40.157Z,0.00
2022-09-15T04:08:40.156Z,0.00
2022-09-15T04:09:40.133Z,0.00
2022-09-15T04:10:40.128Z,0.00
2022-09-15T04:11:40.176Z,0.00
2022-09-15T04:12:40.108Z,0.00
2022-09-15T04:13:40.093Z,0.00
2022-09-15T04:14:40.094Z,0.00
2022-09-15T04:15:40.072Z,0.00
2022-09-15T04:16:40.177Z,0.00
2022-09-15T04:17:40.045Z,0.00
2022-09-15T04:18:40.045Z,0.00
2022-09-15T04:19:40.027Z,0.00
2022-09-15T04:20:40.061Z,0.00
2022-09-15T04:21:40.028Z,0.00
2022-09-15T04:22:40.007Z,0.00
2022-09-15T04:23:39.994Z,0.00
2022-09-15T04:24:39.982Z,0.00
2022-09-15T04:25:39.970Z,0.00
2022-09-15T04:26:39.982Z,0.00
2022-09-15T04:27:39.949Z,0.00
2022-09-15T04:28:39.978Z,0.00
2022-09-15T04:29:39.928Z,0.00
2022-09-15T04:30:39.918Z,0.00
2022-09-15T04:31:39.969Z,0.00
2022-09-15T04:32:39.921Z,0.00
2022-09-15T04:33:39.935Z,0.00
2022-09-15T04:34:41.541Z,0.00
2022-09-15T04:35:39.882Z,0.00
2022-09-15T04:36:39.888Z,1.00
2022-09-15T04:37:39.874Z,0.00
2022-09-15T04:38:39.789Z,1.00
2022-09-15T04:39:39.828Z,0.00
2022-09-15T04:40:39.821Z,0.00
2022-09-15T04:41:39.825Z,0.00
2022-09-15T04:42:39.824Z,0.00
2022-09-15T04:43:39.842Z,0.00
2022-09-15T04:44:39.788Z,0.00
2022-09-15T04:45:39.753Z,1.00
2022-09-15T04:46:39.840Z,0.00
2022-09-15T04:47:39.736Z,1.00
2022-09-15T04:48:39.729Z,0.00
2022-09-15T04:49:39.665Z,1.00
2022-09-15T04:50:39.717Z,0.00
2022-09-15T04:51:39.710Z,0.00
2022-09-15T04:52:39.707Z,0.00
2022-09-15T04:53:39.639Z,2.00
2022-09-15T04:54:39.651Z,1.00
2022-09-15T04:55:39.620Z,1.00
2022-09-15T04:56:39.636Z,1.00
2022-09-15T04:57:39.666Z,0.00
2022-09-15T04:58:39.593Z,2.00
2022-09-15T04:59:39.593Z,2.00
2022-09-15T05:00:39.596Z,2.00
2022-09-15T05:01:39.627Z,2.00
2022-09-15T05:02:39.540Z,4.00
2022-09-15T05:03:39.540Z,5.00
2022-09-15T05:04:39.537Z,4.00
2022-09-15T05:05:39.527Z,7.00
2022-09-15T05:06:39.565Z,2.00
2022-09-15T05:07:39.483Z,2.00
2022-09-15T05:08:39.490Z,2.00
2022-09-15T05:09:40.252Z,3.00
2022-09-15T05:10:39.494Z,3.00
2022-09-15T05:11:39.506Z,5.00
2022-09-15T05:12:39.462Z,3.00
2022-09-15T05:13:39.425Z,5.00
2022-09-15T05:14:39.432Z,4.00
2022-09-15T05:15:39.428Z,8.00
2022-09-15T05:16:39.551Z,8.00
2022-09-15T05:17:39.443Z,6.00
2022-09-15T05:18:39.406Z,5.00
2022-09-15T05:19:39.410Z,9.00
2022-09-15T05:20:39.382Z,14.00
2022-09-15T05:21:39.357Z,9.00
2022-09-15T05:22:41.819Z,11.00
2022-09-15T05:23:39.325Z,11.00
2022-09-15T05:24:39.340Z,10.00
2022-09-15T05:25:39.312Z,20.00
2022-09-15T05:26:39.359Z,16.00
2022-09-15T05:27:39.306Z,18.00
2022-09-15T05:28:39.280Z,24.00
2022-09-15T05:29:39.295Z,24.00
2022-09-15T05:30:43.616Z,24.00
2022-09-15T05:31:39.351Z,25.00
2022-09-15T05:32:39.237Z,27.00
2022-09-15T05:33:39.236Z,35.00
2022-09-15T05:34:39.263Z,40.00
2022-09-15T05:35:39.247Z,35.00
2022-09-15T05:36:39.316Z,40.00
2022-09-15T05:37:39.216Z,38.00
2022-09-15T05:38:39.184Z,38.00
2022-09-15T05:39:39.188Z,37.00
2022-09-15T05:40:39.171Z,34.00
2022-09-15T05:41:39.160Z,27.00
2022-09-15T05:42:39.148Z,29.00
2022-09-15T05:43:39.144Z,25.00
2022-09-15T05:44:39.155Z,29.00
2022-09-15T05:45:39.104Z,29.00
2022-09-15T05:46:39.116Z,38.00
2022-09-15T05:47:39.081Z,41.00
2022-09-15T05:48:39.135Z,40.00
2022-09-15T05:49:39.068Z,34.00
2022-09-15T05:50:39.086Z,36.00
2022-09-15T05:51:39.070Z,39.00
2022-09-15T05:52:39.050Z,39.00
2022-09-15T05:53:39.074Z,40.00
2022-09-15T05:54:39.045Z,38.00
2022-09-15T05:55:39.010Z,37.00
2022-09-15T05:56:39.046Z,30.00
2022-09-15T05:57:38.989Z,31.00
2022-09-15T05:58:39.009Z,29.00
2022-09-15T05:59:38.965Z,33.00
2022-09-15T06:00:38.965Z,31.00
2022-09-15T06:01:38.984Z,27.00
2022-09-15T06:02:39.069Z,35.00
2022-09-15T06:03:38.985Z,38.00
2022-09-15T06:04:38.940Z,45.00
2022-09-15T06:05:38.904Z,50.00
2022-09-15T06:06:38.912Z,52.00
2022-09-15T06:07:38.888Z,51.00
2022-09-15T06:08:42.464Z,58.00
2022-09-15T06:09:38.873Z,59.00
2022-09-15T06:10:38.887Z,58.00
2022-09-15T06:11:38.861Z,65.00
2022-09-15T06:12:38.850Z,69.00
2022-09-15T06:13:38.930Z,64.00
2022-09-15T06:14:38.816Z,64.00
2022-09-15T06:15:38.802Z,59.00
2022-09-15T06:16:38.864Z,67.00
2022-09-15T06:17:39.993Z,57.00
2022-09-15T06:18:38.921Z,63.00
2022-09-15T06:19:38.936Z,70.00
2022-09-15T06:20:38.909Z,58.00
2022-09-15T06:21:38.897Z,59.00
2022-09-15T06:22:38.779Z,65.00
2022-09-15T06:23:38.750Z,73.00
2022-09-15T06:24:38.715Z,72.00
2022-09-15T06:25:38.734Z,80.00
2022-09-15T06:26:38.717Z,81.00
2022-09-15T06:27:38.690Z,94.00
2022-09-15T06:28:38.679Z,89.00
2022-09-15T06:29:38.665Z,79.00
2022-09-15T06:30:38.656Z,73.00
2022-09-15T06:31:38.694Z,80.00
2022-09-15T06:32:38.678Z,83.00
2022-09-15T06:33:38.617Z,87.00
2022-09-15T06:34:38.614Z,84.00
2022-09-15T06:35:38.605Z,77.00
2022-09-15T06:36:38.605Z,73.00
2022-09-15T06:37:38.601Z,91.00
2022-09-15T06:38:38.636Z,100.00
2022-09-15T06:39:38.572Z,88.00
2022-09-15T06:40:38.548Z,83.00
2022-09-15T06:42:00.810Z,87.00
2022-09-15T06:42:38.559Z,93.00
2022-09-15T06:43:38.513Z,85.00
2022-09-15T06:44:38.529Z,100.00
2022-09-15T06:45:38.504Z,100.00
2022-09-15T06:46:38.549Z,99.00
2022-09-15T06:47:38.496Z,93.00
2022-09-15T06:48:38.475Z,97.00
2022-09-15T06:49:38.476Z,93.00
2022-09-15T06:50:38.453Z,94.00
2022-09-15T06:51:38.480Z,110.00
2022-09-15T06:52:38.429Z,112.00
2022-09-15T06:53:38.420Z,111.00
2022-09-15T06:54:38.409Z,125.00
2022-09-15T06:55:38.394Z,125.00
2022-09-15T06:56:38.577Z,126.00
2022-09-15T06:57:39.343Z,117.00
2022-09-15T06:58:38.400Z,116.00
2022-09-15T06:59:38.459Z,102.00
2022-09-15T07:00:38.383Z,107.00
2022-09-15T07:01:38.347Z,105.00
2022-09-15T07:02:38.585Z,109.00
2022-09-15T07:03:38.389Z,115.00
2022-09-15T07:04:38.351Z,122.00
2022-09-15T07:05:38.315Z,122.00
2022-09-15T07:06:38.321Z,120.00
2022-09-15T07:07:38.274Z,106.00
2022-09-15T07:08:38.296Z,101.00
2022-09-15T07:09:41.142Z,117.00
2022-09-15T07:10:38.278Z,128.00
2022-09-15T07:11:38.250Z,136.00
2022-09-15T07:12:38.245Z,133.00
2022-09-15T07:13:38.234Z,155.00
2022-09-15T07:14:38.274Z,179.00
2022-09-15T07:15:38.205Z,200.00
2022-09-15T07:16:38.485Z,172.00
2022-09-15T07:17:38.179Z,207.00
2022-09-15T07:18:42.836Z,212.00
2022-09-15T07:19:38.184Z,268.00
2022-09-15T07:20:38.777Z,238.00
2022-09-15T07:21:38.151Z,218.00
2022-09-15T07:22:38.155Z,222.00
2022-09-15T07:23:38.135Z,225.00
2022-09-15T07:24:38.137Z,211.00
2022-09-15T07:25:38.127Z,232.00
2022-09-15T07:26:38.083Z,246.00
2022-09-15T07:27:38.104Z,279.00
2022-09-15T07:28:38.160Z,305.00
2022-09-15T07:29:38.052Z,285.00
2022-09-15T07:30:38.079Z,291.00
2022-09-15T07:31:38.171Z,291.00
2022-09-15T07:32:38.035Z,302.00
2022-09-15T07:33:38.023Z,284.00
2022-09-15T07:34:38.038Z,263.00
2022-09-15T07:35:38.010Z,317.00
2022-09-15T07:36:38.017Z,262.00
2022-09-15T07:37:37.976Z,251.00
2022-09-15T07:38:37.980Z,232.00
2022-09-15T07:39:38.014Z,223.00
2022-09-15T07:40:38.016Z,264.00
2022-09-15T07:41:38.000Z,217.00
2022-09-15T07:42:37.940Z,204.00
2022-09-15T07:43:37.938Z,211.00
2022-09-15T07:44:37.903Z,224.00
2022-09-15T07:45:37.933Z,197.00
2022-09-15T07:46:37.896Z,209.00
2022-09-15T07:47:37.907Z,178.00
2022-09-15T07:48:37.884Z,173.00
2022-09-15T07:49:38.407Z,185.00
2022-09-15T07:50:37.934Z,160.00
2022-09-15T07:51:37.822Z,223.00
2022-09-15T07:52:37.859Z,216.00
2022-09-15T07:53:37.821Z,183.00
2022-09-15T07:54:37.838Z,206.00
2022-09-15T07:55:37.793Z,167.00
2022-09-15T07:56:37.808Z,199.00
2022-09-15T07:57:37.802Z,189.00
2022-09-15T07:58:37.778Z,192.00
2022-09-15T07:59:41.115Z,191.00
2022-09-15T08:00:37.782Z,183.00
2022-09-15T08:01:37.779Z,182.00
2022-09-15T08:02:37.748Z,240.00
2022-09-15T08:03:37.739Z,241.00
2022-09-15T08:04:37.699Z,218.00
2022-09-15T08:05:41.275Z,257.00
2022-09-15T08:06:37.914Z,260.00
2022-09-15T08:07:37.675Z,281.00
2022-09-15T08:08:37.657Z,282.00
2022-09-15T08:09:38.231Z,277.00
2022-09-15T08:10:37.930Z,264.00
2022-09-15T08:11:37.949Z,349.00
2022-09-15T08:12:37.839Z,292.00
2022-09-15T08:13:38.047Z,332.00
2022-09-15T08:14:37.742Z,302.00
2022-09-15T08:15:37.922Z,264.00
2022-09-15T08:16:38.643Z,550.00
2022-09-15T08:17:37.957Z,361.00
2022-09-15T08:18:37.848Z,311.00
2022-09-15T08:19:37.553Z,388.00
2022-09-15T08:20:37.546Z,391.00
2022-09-15T08:21:37.576Z,384.00
2022-09-15T08:22:37.534Z,375.00
2022-09-15T08:23:37.506Z,421.00
2022-09-15T08:24:37.487Z,386.00
2022-09-15T08:25:37.487Z,430.00
2022-09-15T08:26:37.469Z,408.00
2022-09-15T08:27:37.487Z,386.00
2022-09-15T08:28:37.499Z,289.00
2022-09-15T08:29:37.509Z,325.00
2022-09-15T08:30:37.563Z,334.00
2022-09-15T08:31:37.616Z,363.00
2022-09-15T08:32:37.482Z,824.00
2022-09-15T08:33:40.731Z,355.00
2022-09-15T08:34:37.428Z,504.00
2022-09-15T08:35:37.936Z,418.00
2022-09-15T08:36:37.708Z,583.00
2022-09-15T08:37:47.888Z,414.00
2022-09-15T08:38:37.342Z,367.00
2022-09-15T08:39:37.611Z,316.00
2022-09-15T08:40:37.428Z,356.00
2022-09-15T08:41:37.421Z,392.00
2022-09-15T08:42:41.598Z,435.00
2022-09-15T08:43:37.401Z,497.00
2022-09-15T08:44:37.280Z,518.00
2022-09-15T08:45:37.401Z,533.00
2022-09-15T08:46:37.304Z,970.00
2022-09-15T08:47:37.312Z,485.00
2022-09-15T08:48:37.306Z,815.00
2022-09-15T08:49:51.153Z,520.00
2022-09-15T08:50:37.301Z,854.00
2022-09-15T08:51:37.367Z,458.00
2022-09-15T08:52:37.332Z,509.00
2022-09-15T08:53:37.967Z,470.00
2022-09-15T08:54:37.285Z,1205.00
2022-09-15T08:55:37.389Z,501.00
2022-09-15T08:56:38.346Z,559.00
2022-09-15T08:57:37.221Z,784.00
2022-09-15T08:58:37.170Z,660.00
2022-09-15T08:59:37.129Z,555.00
2022-09-15T09:00:37.149Z,499.00
2022-09-15T09:01:37.221Z,465.00
2022-09-15T09:02:37.182Z,409.00
2022-09-15T09:03:37.456Z,290.00
2022-09-15T09:04:37.117Z,687.00
2022-09-15T09:05:37.188Z,307.00
2022-09-15T09:06:37.080Z,537.00
2022-09-15T09:07:37.169Z,637.00
2022-09-15T09:08:37.359Z,718.00
2022-09-15T09:09:37.117Z,520.00
2022-09-15T09:10:37.067Z,509.00
2022-09-15T09:11:37.219Z,487.00
2022-09-15T09:12:37.090Z,472.00
2022-09-15T09:13:36.971Z,465.00
2022-09-15T09:14:36.983Z,447.00
2022-09-15T09:15:37.065Z,302.00
2022-09-15T09:16:37.107Z,651.00
2022-09-15T09:17:37.003Z,324.00
2022-09-15T09:18:37.531Z,438.00
2022-09-15T09:19:36.920Z,348.00
2022-09-15T09:20:37.481Z,398.00
2022-09-15T09:21:37.002Z,463.00
2022-09-15T09:22:37.054Z,552.00
2022-09-15T09:23:36.888Z,624.00
2022-09-15T09:24:37.011Z,655.00
2022-09-15T09:25:36.858Z,649.00
2022-09-15T09:26:37.537Z,646.00
2022-09-15T09:27:36.918Z,694.00
2022-09-15T09:28:36.985Z,609.00
2022-09-15T09:29:36.876Z,664.00
2022-09-15T09:30:36.969Z,1143.00
2022-09-15T09:31:36.882Z,750.00
2022-09-15T09:32:36.949Z,715.00
2022-09-15T09:33:38.607Z,543.00
2022-09-15T09:34:37.026Z,1391.00
2022-09-15T09:35:36.774Z,395.00
2022-09-15T09:36:36.789Z,982.00
2022-09-15T09:37:37.047Z,415.00
2022-09-15T09:38:36.976Z,500.00
2022-09-15T09:39:36.795Z,610.00
2022-09-15T09:40:36.921Z,610.00
2022-09-15T09:41:36.805Z,616.00
2022-09-15T09:42:36.773Z,616.00
2022-09-15T09:43:36.731Z,624.00
2022-09-15T09:44:36.671Z,633.00
2022-09-15T09:45:36.641Z,640.00
2022-09-15T09:46:36.772Z,648.00
2022-09-15T09:47:36.646Z,725.00
2022-09-15T09:48:36.597Z,675.00
2022-09-15T09:49:36.625Z,554.00
2022-09-15T09:50:36.624Z,570.00
2022-09-15T09:51:36.647Z,599.00
2022-09-15T09:52:36.557Z,609.00
2022-09-15T09:53:36.608Z,616.00
2022-09-15T09:54:36.644Z,1195.00
2022-09-15T09:55:36.583Z,515.00
2022-09-15T09:56:36.550Z,619.00
2022-09-15T09:57:39.942Z,587.00
2022-09-15T09:58:37.502Z,621.00
2022-09-15T09:59:36.552Z,660.00
2022-09-15T10:00:36.598Z,636.00
2022-09-15T10:01:36.578Z,926.00
2022-09-15T10:06:27.536Z,455.00
2022-09-15T10:07:28.282Z,446.00
2022-09-15T10:08:28.199Z,421.00
2022-09-15T10:09:33.146Z,335.00
2022-09-15T10:10:28.208Z,926.00
2022-09-15T10:11:28.133Z,417.00
2022-09-15T10:12:28.193Z,1572.00
2022-09-15T10:13:28.996Z,909.00
2022-09-15T10:14:28.213Z,373.00
2022-09-15T10:15:28.130Z,475.00
2022-09-15T10:16:28.600Z,583.00
2022-09-15T10:17:28.095Z,1339.00
2022-09-15T10:18:28.100Z,857.00
2022-09-15T10:19:28.057Z,536.00
2022-09-15T10:20:28.068Z,1296.00
2022-09-15T10:21:28.127Z,660.00
2022-09-15T10:22:28.559Z,703.00
2022-09-15T10:23:28.059Z,776.00
2022-09-15T10:24:28.070Z,750.00
2022-09-15T10:25:39.726Z,762.00
2022-09-15T10:26:28.056Z,1426.00
2022-09-15T10:27:27.996Z,586.00
2022-09-15T10:28:28.054Z,610.00
2022-09-15T10:29:28.063Z,718.00
2022-09-15T10:30:28.013Z,848.00
2022-09-15T10:31:28.078Z,871.00
2022-09-15T10:32:28.078Z,2503.00
2022-09-15T10:33:27.962Z,658.00
2022-09-15T10:34:29.003Z,510.00
2022-09-15T10:35:28.812Z,1453.00
2022-09-15T10:36:27.971Z,838.00
2022-09-15T10:37:28.494Z,593.00
2022-09-15T10:38:28.058Z,508.00
2022-09-15T10:39:28.068Z,513.00
2022-09-15T10:40:27.972Z,389.00
2022-09-15T10:41:28.009Z,357.00
2022-09-15T10:42:27.915Z,281.00
2022-09-15T10:43:27.901Z,468.00
2022-09-15T10:44:27.860Z,468.00
2022-09-15T10:45:27.909Z,379.00
2022-09-15T10:46:27.826Z,392.00
2022-09-15T10:47:27.821Z,255.00
2022-09-15T10:48:27.841Z,261.00
2022-09-15T10:49:27.854Z,243.00
2022-09-15T10:50:27.855Z,304.00
2022-09-15T10:51:27.911Z,315.00
2022-09-15T10:52:28.174Z,439.00
2022-09-15T10:53:27.783Z,461.00
2022-09-15T10:54:27.700Z,563.00
2022-09-15T10:55:42.481Z,548.00
2022-09-15T10:56:27.802Z,414.00
2022-09-15T10:58:27.691Z,389.00
2022-09-15T10:59:27.731Z,473.00
2022-09-15T11:00:27.827Z,517.00
2022-09-15T11:01:27.820Z,458.00
2022-09-15T11:02:27.684Z,414.00
2022-09-15T11:03:27.631Z,397.00
2022-09-15T11:04:27.634Z,423.00
2022-09-15T11:05:27.828Z,329.00
2022-09-15T11:06:27.671Z,318.00
2022-09-15T11:07:27.580Z,382.00
2022-09-15T11:08:27.568Z,393.00
2022-09-15T11:09:27.591Z,329.00
2022-09-15T11:10:27.601Z,401.00
2022-09-15T11:11:27.508Z,365.00
2022-09-15T11:12:29.414Z,449.00
2022-09-15T11:13:27.492Z,467.00
2022-09-15T11:14:27.689Z,512.00
2022-09-15T11:15:27.484Z,568.00
2022-09-15T11:16:27.709Z,639.00
2022-09-15T11:17:27.469Z,572.00
2022-09-15T11:18:27.502Z,497.00
2022-09-15T11:19:28.098Z,462.00
2022-09-15T11:20:27.651Z,444.00
2022-09-15T11:21:27.481Z,446.00
2022-09-15T11:22:27.482Z,472.00
2022-09-15T11:23:27.906Z,389.00
2022-09-15T11:24:28.685Z,350.00
2022-09-15T11:25:27.367Z,283.00
2022-09-15T11:26:27.404Z,254.00
2022-09-15T11:27:28.127Z,218.00
2022-09-15T11:28:27.372Z,261.00
2022-09-15T11:29:27.324Z,313.00
2022-09-15T11:30:28.062Z,445.00
2022-09-15T11:31:27.414Z,470.00
2022-09-15T11:32:27.319Z,544.00
2022-09-15T11:33:27.331Z,426.00
2022-09-15T11:34:27.306Z,376.00
2022-09-15T11:35:27.622Z,478.00
2022-09-15T11:36:27.318Z,468.00
2022-09-15T11:37:27.266Z,432.00
2022-09-15T11:38:27.271Z,702.00
2022-09-15T11:39:27.227Z,688.00
2022-09-15T11:40:27.309Z,524.00
2022-09-15T11:41:27.274Z,502.00
2022-09-15T11:42:27.197Z,506.00
2022-09-15T11:43:27.204Z,553.00
2022-09-15T11:44:27.326Z,505.00
2022-09-15T11:45:27.198Z,451.00
2022-09-15T11:46:27.250Z,493.00
2022-09-15T11:47:27.210Z,516.00
2022-09-15T11:48:27.147Z,550.00
2022-09-15T11:49:27.155Z,532.00
2022-09-15T11:50:27.112Z,754.00
2022-09-15T11:51:27.230Z,473.00
2022-09-15T11:52:27.232Z,525.00
2022-09-15T11:53:27.260Z,843.00
2022-09-15T11:54:31.061Z,677.00
2022-09-15T11:55:27.105Z,475.00
2022-09-15T11:56:27.093Z,726.00
2022-09-15T11:57:27.074Z,846.00
2022-09-15T11:58:27.032Z,315.00
2022-09-15T11:59:27.054Z,332.00
2022-09-15T12:00:27.208Z,427.00
2022-09-15T12:01:27.128Z,641.00
2022-09-15T12:02:27.220Z,1042.00
2022-09-15T12:03:26.989Z,617.00
2022-09-15T12:04:26.952Z,618.00
2022-09-15T12:05:27.021Z,1855.00
2022-09-15T12:06:26.925Z,519.00
2022-09-15T12:07:26.946Z,264.00
2022-09-15T12:08:26.934Z,315.00
2022-09-15T12:09:26.937Z,327.00
2022-09-15T12:10:26.969Z,312.00
2022-09-15T12:11:26.914Z,348.00
2022-09-15T12:12:30.650Z,422.00
2022-09-15T12:13:26.953Z,384.00
2022-09-15T12:14:26.836Z,504.00
2022-09-15T12:15:26.934Z,1722.00
2022-09-15T12:16:26.932Z,743.00
2022-09-15T12:17:26.817Z,573.00
2022-09-15T12:18:38.447Z,2337.00
2022-09-15T12:19:26.797Z,528.00
2022-09-15T12:20:26.920Z,1147.00
2022-09-15T12:21:26.872Z,461.00
2022-09-15T12:22:26.777Z,1514.00
2022-09-15T12:23:26.895Z,296.00
2022-09-15T12:24:26.813Z,380.00
2022-09-15T12:25:26.807Z,317.00
2022-09-15T12:26:26.790Z,267.00
2022-09-15T12:27:26.714Z,251.00
2022-09-15T12:28:28.622Z,230.00
2022-09-15T12:29:26.682Z,194.00
2022-09-15T12:30:26.706Z,200.00
2022-09-15T12:31:26.834Z,213.00
2022-09-15T12:32:26.686Z,231.00
2022-09-15T12:33:26.677Z,296.00
2022-09-15T12:34:26.648Z,472.00
2022-09-15T12:35:26.697Z,2050.00
2022-09-15T12:36:26.629Z,391.00
2022-09-15T12:37:26.638Z,434.00
2022-09-15T12:38:26.635Z,471.00
2022-09-15T12:39:26.704Z,460.00
2022-09-15T12:40:26.693Z,445.00
2022-09-15T12:41:26.624Z,468.00
2022-09-15T12:42:26.598Z,475.00
2022-09-15T12:43:26.617Z,455.00
2022-09-15T12:44:26.614Z,423.00
2022-09-15T12:45:26.529Z,453.00
2022-09-15T12:46:26.583Z,319.00
2022-09-15T12:47:27.075Z,355.00
2022-09-15T12:48:26.565Z,407.00
2022-09-15T12:49:26.603Z,437.00
2022-09-15T12:50:26.489Z,468.00
2022-09-15T12:51:26.502Z,486.00
2022-09-15T12:52:26.504Z,486.00
2022-09-15T12:53:26.561Z,416.00
2022-09-15T12:54:26.441Z,418.00
2022-09-15T12:55:26.458Z,566.00